createdAt,value
2023-01-06T00:01:11.406Z,7.30
2023-01-06T00:03:38.955Z,7.30
2023-01-06T00:06:08.207Z,7.30
2023-01-06T00:08:36.068Z,7.30
2023-01-06T00:11:07.716Z,7.30
2023-01-06T00:13:34.633Z,7.30
2023-01-06T00:16:10.096Z,7.40
2023-01-06T00:18:37.497Z,7.40
2023-01-06T00:21:05.867Z,7.40
2023-01-06T00:23:33.407Z,7.40
2023-01-06T00:26:00.362Z,7.40
2023-01-06T00:28:27.433Z,7.50
2023-01-06T00:30:54.332Z,7.40
2023-01-06T00:33:21.418Z,7.50
2023-01-06T00:35:48.150Z,7.50
2023-01-06T00:38:14.866Z,7.50
2023-01-06T00:40:41.605Z,7.50
2023-01-06T00:43:08.779Z,7.60
2023-01-06T00:45:35.481Z,7.70
2023-01-06T00:48:02.163Z,7.80
2023-01-06T00:50:29.078Z,7.90
2023-01-06T00:52:55.807Z,8.00
2023-01-06T00:55:22.507Z,8.10
2023-01-06T00:57:52.826Z,8.10
2023-01-06T01:00:20.133Z,8.20
2023-01-06T01:02:47.043Z,8.30
2023-01-06T01:05:14.128Z,8.30
2023-01-06T01:07:41.186Z,8.50
2023-01-06T01:10:08.726Z,8.50
2023-01-06T01:12:36.648Z,8.60
2023-01-06T01:15:03.531Z,8.60
2023-01-06T01:17:31.718Z,8.70
2023-01-06T01:19:59.921Z,8.70
2023-01-06T01:22:28.950Z,8.70
2023-01-06T01:24:55.777Z,8.70
2023-01-06T01:27:22.558Z,8.70
2023-01-06T01:29:49.320Z,8.70
2023-01-06T01:32:16.025Z,8.70
2023-01-06T01:34:42.748Z,8.80
2023-01-06T01:37:09.531Z,8.80
2023-01-06T01:39:36.199Z,8.80
2023-01-06T01:42:02.979Z,8.80
2023-01-06T01:44:56.052Z,8.80
2023-01-06T01:47:52.823Z,8.90
2023-01-06T01:50:32.144Z,8.90
2023-01-06T01:53:06.409Z,8.80
2023-01-06T01:55:37.129Z,8.90
2023-01-06T01:58:14.360Z,8.90
2023-01-06T02:00:43.295Z,8.90
2023-01-06T02:03:11.215Z,8.80
2023-01-06T02:05:46.026Z,8.90
2023-01-06T02:08:28.163Z,8.90
2023-01-06T02:10:55.047Z,8.90
2023-01-06T02:13:22.431Z,8.90
2023-01-06T02:15:52.060Z,9.00
2023-01-06T02:18:37.612Z,8.90
2023-01-06T02:21:22.638Z,9.00
2023-01-06T02:24:13.927Z,9.00
2023-01-06T02:27:18.888Z,9.00
2023-01-06T02:30:09.330Z,9.00
2023-01-06T02:32:40.100Z,9.00
2023-01-06T02:35:25.658Z,9.10
2023-01-06T02:38:09.971Z,9.10
2023-01-06T02:40:42.367Z,9.10
2023-01-06T02:43:50.949Z,9.20
2023-01-06T02:46:23.541Z,9.10
2023-01-06T02:49:14.691Z,9.10
2023-01-06T02:51:41.374Z,9.20
2023-01-06T02:54:08.079Z,9.20
2023-01-06T02:56:39.819Z,9.20
2023-01-06T02:59:12.294Z,9.20
2023-01-06T03:01:42.596Z,9.20
2023-01-06T03:04:14.818Z,9.20
2023-01-06T03:06:45.538Z,9.30
2023-01-06T03:09:18.880Z,9.30
2023-01-06T03:11:50.579Z,9.30
2023-01-06T03:14:25.963Z,9.40
2023-01-06T03:16:53.640Z,9.30
2023-01-06T03:19:21.039Z,9.30
2023-01-06T03:21:49.637Z,9.30
2023-01-06T03:24:17.520Z,9.30
2023-01-06T03:26:46.448Z,9.40
2023-01-06T03:29:16.292Z,9.40
2023-01-06T03:32:03.293Z,9.40
2023-01-06T03:34:53.252Z,9.50
2023-01-06T03:37:40.486Z,9.50
2023-01-06T03:40:28.540Z,9.50
2023-01-06T03:43:16.265Z,9.50
2023-01-06T03:46:11.109Z,9.50
2023-01-06T03:49:09.443Z,9.40
2023-01-06T03:51:42.127Z,9.40
2023-01-06T03:54:30.848Z,9.40
2023-01-06T03:57:18.582Z,9.40
2023-01-06T03:59:57.210Z,9.40
2023-01-06T04:02:24.279Z,9.40
2023-01-06T04:05:13.463Z,9.40
2023-01-06T04:07:43.333Z,9.30
2023-01-06T04:10:11.377Z,9.40
2023-01-06T04:12:38.546Z,9.30
2023-01-06T04:15:08.292Z,9.30
2023-01-06T04:17:35.354Z,9.40
2023-01-06T04:20:02.545Z,9.30
2023-01-06T04:22:29.220Z,9.40
2023-01-06T04:24:55.941Z,9.40
2023-01-06T04:27:23.965Z,9.40
2023-01-06T04:29:50.668Z,9.30
2023-01-06T04:32:17.612Z,9.30
2023-01-06T04:34:44.371Z,9.40
2023-01-06T04:37:11.605Z,9.30
2023-01-06T04:39:40.174Z,9.30
2023-01-06T04:42:07.030Z,9.30
2023-01-06T04:44:33.787Z,9.20
2023-01-06T04:47:00.491Z,9.20
2023-01-06T04:49:27.255Z,9.20
2023-01-06T04:51:53.995Z,9.10
2023-01-06T04:54:20.850Z,9.20
2023-01-06T04:56:48.067Z,9.20
2023-01-06T04:59:14.767Z,9.20
2023-01-06T05:01:41.657Z,9.30
2023-01-06T05:04:08.637Z,9.30
2023-01-06T05:06:35.744Z,9.30
2023-01-06T05:09:02.696Z,9.30
2023-01-06T05:11:29.441Z,9.40
2023-01-06T05:13:56.108Z,9.40
2023-01-06T05:16:26.296Z,9.40
2023-01-06T05:18:53.680Z,9.40
2023-01-06T05:21:20.899Z,9.40
2023-01-06T05:23:47.643Z,9.40
2023-01-06T05:26:20.164Z,9.40
2023-01-06T05:28:47.626Z,9.50
2023-01-06T05:31:15.298Z,9.50
2023-01-06T05:33:42.183Z,9.50
2023-01-06T05:36:12.212Z,9.50
2023-01-06T05:38:39.211Z,9.50
2023-01-06T05:41:06.433Z,9.50
2023-01-06T05:43:34.596Z,9.60
2023-01-06T05:46:09.200Z,9.60
2023-01-06T05:48:36.822Z,9.60
2023-01-06T05:51:06.509Z,9.60
2023-01-06T05:53:38.225Z,9.60
2023-01-06T05:56:06.750Z,9.50
2023-01-06T05:58:34.193Z,9.60
2023-01-06T06:01:01.957Z,9.50
2023-01-06T06:03:28.994Z,9.50
2023-01-06T06:05:55.706Z,9.50
2023-01-06T06:08:22.393Z,9.60
2023-01-06T06:10:49.077Z,9.60
2023-01-06T06:13:15.759Z,9.60
2023-01-06T06:15:42.505Z,9.60
2023-01-06T06:18:09.197Z,9.60
2023-01-06T06:20:35.943Z,9.60
2023-01-06T06:23:02.661Z,9.60
2023-01-06T06:25:29.593Z,9.70
2023-01-06T06:27:59.845Z,9.70
2023-01-06T06:30:26.599Z,9.70
2023-01-06T06:32:53.364Z,9.70
2023-01-06T06:35:20.086Z,9.70
2023-01-06T06:37:46.837Z,9.70
2023-01-06T06:40:13.640Z,9.70
2023-01-06T06:42:40.306Z,9.70
2023-01-06T06:45:07.499Z,9.70
2023-01-06T06:47:34.190Z,9.70
2023-01-06T06:50:00.850Z,9.70
2023-01-06T06:52:27.523Z,9.70
2023-01-06T06:54:54.197Z,9.70
2023-01-06T06:57:21.096Z,9.70
2023-01-06T06:59:47.806Z,9.70
2023-01-06T07:02:14.559Z,9.70
2023-01-06T07:04:41.342Z,9.70
2023-01-06T07:07:08.078Z,9.70
2023-01-06T07:09:34.749Z,9.60
2023-01-06T07:12:01.421Z,9.60
2023-01-06T07:14:28.102Z,9.60
2023-01-06T07:16:54.791Z,9.60
2023-01-06T07:19:21.493Z,9.60
2023-01-06T07:21:48.176Z,9.50
2023-01-06T07:24:14.859Z,9.50
2023-01-06T07:26:41.527Z,9.50
2023-01-06T07:29:08.212Z,9.50
2023-01-06T07:31:35.008Z,9.50
2023-01-06T07:34:01.783Z,9.50
2023-01-06T07:36:28.482Z,9.50
2023-01-06T07:38:55.178Z,9.50
2023-01-06T07:41:21.843Z,9.60
2023-01-06T07:43:48.502Z,9.60
2023-01-06T07:46:15.267Z,9.70
2023-01-06T07:48:42.043Z,9.70
2023-01-06T07:51:08.872Z,9.70
2023-01-06T07:53:35.674Z,9.70
2023-01-06T07:56:02.384Z,9.70
2023-01-06T07:58:29.274Z,9.80
2023-01-06T08:00:56.020Z,9.90
2023-01-06T08:03:22.854Z,9.90
2023-01-06T08:05:50.030Z,9.90
2023-01-06T08:08:17.095Z,9.90
2023-01-06T08:10:44.012Z,10.00
2023-01-06T08:13:11.812Z,9.90
2023-01-06T08:15:39.230Z,9.90
2023-01-06T08:18:06.603Z,10.00
2023-01-06T08:20:36.358Z,10.00
2023-01-06T08:23:03.429Z,10.10
2023-01-06T08:25:30.411Z,10.20
2023-01-06T08:27:59.076Z,10.30
2023-01-06T08:30:25.897Z,10.40
2023-01-06T08:32:56.096Z,10.50
2023-01-06T08:35:25.904Z,10.60
2023-01-06T08:37:52.762Z,10.70
2023-01-06T08:40:19.667Z,10.80
2023-01-06T08:42:46.421Z,10.90
2023-01-06T08:45:14.794Z,10.90
2023-01-06T08:47:41.530Z,10.90
2023-01-06T08:50:08.653Z,11.00
2023-01-06T08:52:35.330Z,11.00
2023-01-06T08:55:02.030Z,11.30
2023-01-06T08:57:28.697Z,11.40
2023-01-06T08:59:55.391Z,11.40
2023-01-06T09:02:22.148Z,11.20
2023-01-06T09:04:49.281Z,11.10
2023-01-06T09:07:16.071Z,11.00
2023-01-06T09:09:42.829Z,10.90
2023-01-06T09:12:09.788Z,10.80
2023-01-06T09:14:36.478Z,10.80
2023-01-06T09:17:03.181Z,10.90
2023-01-06T09:19:29.846Z,10.90
2023-01-06T09:21:56.523Z,11.00
2023-01-06T09:24:23.207Z,11.10
2023-01-06T09:26:49.988Z,11.10
2023-01-06T09:29:16.687Z,11.10
2023-01-06T09:31:43.385Z,11.10
2023-01-06T09:34:10.168Z,11.00
2023-01-06T09:36:36.880Z,10.90
2023-01-06T09:39:03.654Z,10.80
2023-01-06T09:41:51.733Z,10.70
2023-01-06T09:44:24.826Z,10.60
2023-01-06T09:46:52.384Z,10.50
2023-01-06T09:49:57.477Z,10.50
2023-01-06T09:52:29.445Z,10.50
2023-01-06T09:55:05.098Z,10.40
2023-01-06T09:57:58.957Z,10.40
2023-01-06T10:00:35.027Z,10.40
2023-01-06T10:03:01.906Z,10.40
2023-01-06T10:05:33.228Z,10.40
2023-01-06T10:08:26.464Z,10.30
2023-01-06T10:10:53.221Z,10.30
2023-01-06T10:13:22.946Z,10.30
2023-01-06T10:16:03.614Z,10.40
2023-01-06T10:18:57.427Z,10.30
2023-01-06T10:21:34.503Z,10.40
2023-01-06T10:24:15.827Z,10.40
2023-01-06T10:26:51.028Z,10.40
2023-01-06T10:29:19.768Z,10.40
2023-01-06T10:31:49.108Z,10.40
2023-01-06T10:34:27.673Z,10.30
2023-01-06T10:37:20.110Z,10.20
2023-01-06T10:39:52.474Z,10.20
2023-01-06T10:43:03.827Z,10.20
2023-01-06T10:45:47.862Z,10.20
2023-01-06T10:48:22.996Z,10.20
2023-01-06T10:50:49.751Z,10.30
2023-01-06T10:53:16.793Z,10.30
2023-01-06T10:55:56.402Z,10.50
2023-01-06T10:58:25.904Z,10.60
2023-01-06T11:01:02.005Z,10.60
2023-01-06T11:03:34.100Z,10.50
2023-01-06T11:06:10.192Z,10.40
2023-01-06T11:08:38.394Z,10.30
2023-01-06T11:11:26.519Z,10.20
2023-01-06T11:13:57.296Z,10.10
2023-01-06T11:16:36.344Z,10.00
2023-01-06T11:19:05.672Z,9.90
2023-01-06T11:21:44.259Z,9.80
2023-01-06T11:24:21.552Z,9.70
2023-01-06T11:26:54.864Z,9.70
2023-01-06T11:29:33.102Z,9.60
2023-01-06T11:32:10.321Z,9.50
2023-01-06T11:34:37.115Z,9.50
2023-01-06T11:37:04.583Z,9.50
2023-01-06T11:39:35.038Z,9.50
2023-01-06T11:42:13.568Z,9.60
2023-01-06T11:44:43.414Z,9.60
2023-01-06T11:47:15.813Z,9.80
2023-01-06T11:49:55.607Z,9.90
2023-01-06T11:52:32.850Z,10.10
2023-01-06T11:55:08.963Z,10.00
2023-01-06T11:58:00.143Z,10.00
2023-01-06T12:00:44.271Z,9.90
2023-01-06T12:03:11.003Z,9.90
2023-01-06T12:05:58.730Z,9.90
2023-01-06T12:08:42.047Z,9.80
2023-01-06T12:11:25.737Z,9.90
2023-01-06T12:14:08.854Z,9.90
2023-01-06T12:16:55.131Z,9.90
2023-01-06T12:19:44.246Z,9.90
2023-01-06T12:22:23.004Z,9.90
2023-01-06T12:24:51.007Z,9.90
2023-01-06T12:27:27.776Z,9.90
2023-01-06T12:30:04.523Z,10.00
2023-01-06T12:32:40.988Z,10.00
2023-01-06T12:35:14.165Z,10.00
2023-01-06T12:37:50.262Z,10.00
2023-01-06T12:40:22.348Z,10.00
2023-01-06T12:43:04.274Z,9.90
2023-01-06T12:45:46.635Z,10.00
2023-01-06T12:48:37.391Z,10.00
2023-01-06T12:51:11.375Z,9.90
2023-01-06T12:53:52.542Z,9.90
2023-01-06T12:56:46.717Z,9.90
2023-01-06T12:59:29.752Z,9.80
2023-01-06T13:02:03.526Z,9.80
2023-01-06T13:05:24.969Z,9.80
2023-01-06T13:08:39.250Z,9.70
2023-01-06T13:11:34.054Z,9.70
2023-01-06T13:14:11.930Z,9.70
2023-01-06T13:16:59.273Z,9.60
2023-01-06T13:19:40.706Z,9.60
2023-01-06T13:22:12.573Z,9.60
2023-01-06T13:24:56.527Z,9.50
2023-01-06T13:27:32.164Z,9.50
2023-01-06T13:30:24.773Z,9.60
2023-01-06T13:33:11.031Z,9.60
2023-01-06T13:36:02.262Z,9.50
2023-01-06T13:38:43.374Z,9.50
2023-01-06T13:41:18.273Z,9.60
2023-01-06T13:43:46.279Z,9.60
2023-01-06T13:46:17.679Z,9.70
2023-01-06T13:48:50.992Z,9.60
2023-01-06T13:51:22.403Z,9.60
2023-01-06T13:53:50.360Z,9.60
2023-01-06T13:56:17.107Z,9.60
2023-01-06T13:58:48.204Z,9.50
2023-01-06T14:01:20.899Z,9.50
2023-01-06T14:03:49.438Z,9.50
2023-01-06T14:06:22.030Z,9.50
2023-01-06T14:08:57.137Z,9.50
2023-01-06T14:11:32.624Z,9.40
2023-01-06T14:14:28.424Z,9.50
2023-01-06T14:16:56.490Z,9.50
2023-01-06T14:19:33.211Z,9.50
2023-01-06T14:22:18.925Z,9.50
2023-01-06T14:24:51.384Z,9.50
2023-01-06T14:27:47.210Z,9.40
2023-01-06T14:30:21.623Z,9.40
2023-01-06T14:32:48.299Z,9.50
2023-01-06T14:35:19.339Z,9.40
2023-01-06T14:37:56.932Z,9.40
2023-01-06T14:40:27.609Z,9.40
2023-01-06T14:43:00.503Z,9.40
2023-01-06T14:45:33.957Z,9.40
2023-01-06T14:48:06.493Z,9.40
2023-01-06T14:50:47.117Z,9.40
2023-01-06T14:53:22.489Z,9.40
2023-01-06T14:55:50.612Z,9.40
2023-01-06T14:58:32.412Z,9.30
2023-01-06T15:01:00.015Z,9.30
2023-01-06T15:03:28.202Z,9.30
2023-01-06T15:06:22.181Z,9.30
2023-01-06T15:08:49.486Z,9.20
2023-01-06T15:11:29.434Z,9.20
2023-01-06T15:13:56.827Z,9.20
2023-01-06T15:16:36.787Z,9.20
2023-01-06T15:19:08.349Z,9.20
2023-01-06T15:21:44.221Z,9.20
2023-01-06T15:24:21.466Z,9.20
2023-01-06T15:26:50.103Z,9.10
2023-01-06T15:29:19.878Z,9.10
2023-01-06T15:31:48.755Z,9.00
2023-01-06T15:34:22.867Z,8.90
2023-01-06T15:36:53.245Z,8.90
2023-01-06T15:39:27.079Z,8.80
2023-01-06T15:41:55.350Z,8.70
2023-01-06T15:44:53.234Z,8.60
2023-01-06T15:47:37.294Z,8.60
2023-01-06T15:50:07.983Z,8.70
2023-01-06T15:52:48.580Z,8.60
2023-01-06T15:55:24.626Z,8.60
2023-01-06T15:58:14.529Z,8.60
2023-01-06T16:00:50.539Z,8.60
2023-01-06T16:03:26.694Z,8.60
2023-01-06T16:06:16.517Z,8.60
2023-01-06T16:08:44.130Z,8.60
2023-01-06T16:11:16.962Z,8.60
2023-01-06T16:13:57.758Z,8.60
2023-01-06T16:16:40.296Z,8.70
2023-01-06T16:19:13.542Z,8.70
2023-01-06T16:21:42.778Z,8.70
2023-01-06T16:24:19.618Z,8.80
2023-01-06T16:26:57.710Z,8.80
2023-01-06T16:29:29.278Z,8.70
2023-01-06T16:31:58.046Z,8.70
2023-01-06T16:34:30.350Z,8.60
2023-01-06T16:37:01.189Z,8.60
2023-01-06T16:39:28.345Z,8.60
2023-01-06T16:42:01.233Z,8.60
2023-01-06T16:44:32.303Z,8.60
2023-01-06T16:47:00.000Z,8.60
2023-01-06T16:49:26.788Z,8.60
2023-01-06T16:51:54.880Z,8.60
2023-01-06T16:54:22.464Z,8.50
2023-01-06T16:56:52.617Z,8.50
2023-01-06T16:59:22.024Z,8.50
2023-01-06T17:01:48.819Z,8.60
2023-01-06T17:04:16.078Z,8.60
2023-01-06T17:06:45.336Z,8.70
2023-01-06T17:09:20.531Z,8.70
2023-01-06T17:11:48.899Z,8.70
2023-01-06T17:14:20.963Z,8.80
2023-01-06T17:16:48.318Z,8.70
2023-01-06T17:19:23.297Z,8.80
2023-01-06T17:21:54.081Z,8.80
2023-01-06T17:24:28.182Z,8.80
2023-01-06T17:26:58.636Z,8.70
2023-01-06T17:29:29.368Z,8.80
2023-01-06T17:32:00.584Z,8.70
2023-01-06T17:34:36.581Z,8.70
2023-01-06T17:37:12.255Z,8.70
2023-01-06T17:39:44.093Z,8.70
2023-01-06T17:42:13.576Z,8.70
2023-01-06T17:44:41.586Z,8.70
2023-01-06T17:47:17.315Z,8.70
2023-01-06T17:49:55.181Z,8.70
2023-01-06T17:52:28.483Z,8.70
2023-01-06T17:55:17.320Z,8.70
2023-01-06T17:57:47.091Z,8.70
2023-01-06T18:00:24.275Z,8.80
2023-01-06T18:02:59.530Z,8.80
2023-01-06T18:05:26.207Z,8.80
2023-01-06T18:08:08.031Z,8.70
2023-01-06T18:10:39.270Z,8.70
2023-01-06T18:13:19.817Z,8.70
2023-01-06T18:15:50.042Z,8.70
2023-01-06T18:18:31.911Z,8.70
2023-01-06T18:21:17.012Z,8.70
2023-01-06T18:23:44.754Z,8.70
2023-01-06T18:26:26.509Z,8.70
2023-01-06T18:28:54.578Z,8.70
2023-01-06T18:31:23.694Z,8.70
2023-01-06T18:33:51.200Z,8.60
2023-01-06T18:36:17.999Z,8.70
2023-01-06T18:38:45.346Z,8.60
2023-01-06T18:41:13.409Z,8.70
2023-01-06T18:43:41.873Z,8.60
2023-01-06T18:46:14.920Z,8.60
2023-01-06T18:48:42.504Z,8.80
2023-01-06T18:51:24.868Z,8.60
2023-01-06T18:53:52.519Z,8.60
2023-01-06T18:56:24.904Z,8.60
2023-01-06T18:58:52.936Z,8.70
2023-01-06T19:01:44.455Z,8.70
2023-01-06T19:04:29.451Z,8.70
2023-01-06T19:07:16.289Z,8.70
2023-01-06T19:09:52.120Z,8.70
2023-01-06T19:12:33.103Z,8.70
2023-01-06T19:15:17.455Z,8.70
2023-01-06T19:17:47.062Z,8.70
2023-01-06T19:20:29.066Z,8.70
2023-01-06T19:22:57.077Z,8.70
2023-01-06T19:25:40.529Z,8.70
2023-01-06T19:28:25.229Z,8.80
2023-01-06T19:30:54.911Z,8.80
2023-01-06T19:33:29.048Z,8.90
2023-01-06T19:36:01.991Z,8.90
2023-01-06T19:38:41.161Z,8.90
2023-01-06T19:41:18.075Z,8.90
2023-01-06T19:43:44.808Z,8.90
2023-01-06T19:46:29.905Z,8.90
2023-01-06T19:48:56.970Z,8.90
2023-01-06T19:51:29.930Z,8.90
2023-01-06T19:54:00.702Z,8.90
2023-01-06T19:56:32.559Z,8.90
2023-01-06T19:59:25.999Z,8.90
2023-01-06T20:02:07.874Z,8.90
2023-01-06T20:04:35.086Z,8.90
2023-01-06T20:07:02.825Z,8.90
2023-01-06T20:09:32.621Z,8.90
2023-01-06T20:11:59.990Z,8.90
2023-01-06T20:14:26.658Z,8.90
2023-01-06T20:16:53.372Z,8.90
2023-01-06T20:19:21.570Z,8.90
2023-01-06T20:21:48.462Z,8.90
2023-01-06T20:24:15.228Z,8.90
2023-01-06T20:26:42.444Z,8.90
2023-01-06T20:29:09.291Z,8.90
2023-01-06T20:31:36.206Z,8.90
2023-01-06T20:34:03.164Z,8.90
2023-01-06T20:36:29.860Z,8.90
2023-01-06T20:38:56.561Z,8.90
2023-01-06T20:41:23.243Z,8.80
2023-01-06T20:43:49.909Z,8.80
2023-01-06T20:46:17.699Z,8.80
2023-01-06T20:48:44.516Z,8.80
2023-01-06T20:51:11.436Z,8.80
2023-01-06T20:53:38.183Z,8.80
2023-01-06T20:56:05.234Z,8.80
2023-01-06T20:58:31.926Z,8.70
2023-01-06T21:00:58.663Z,8.70
2023-01-06T21:03:25.357Z,8.70
2023-01-06T21:05:52.358Z,8.70
2023-01-06T21:08:19.060Z,8.70
2023-01-06T21:10:45.781Z,8.60
2023-01-06T21:13:12.475Z,8.60
2023-01-06T21:15:39.283Z,8.60
2023-01-06T21:18:05.978Z,8.60
2023-01-06T21:20:32.764Z,8.60
2023-01-06T21:22:59.457Z,8.60
2023-01-06T21:25:26.154Z,8.60
2023-01-06T21:27:52.848Z,8.50
2023-01-06T21:30:19.975Z,8.50
2023-01-06T21:32:46.731Z,8.50
2023-01-06T21:35:13.586Z,8.50
2023-01-06T21:37:40.477Z,8.60
2023-01-06T21:40:09.296Z,8.60
2023-01-06T21:42:55.460Z,8.60
2023-01-06T21:45:22.228Z,8.50
2023-01-06T21:47:48.945Z,8.60
2023-01-06T21:50:15.904Z,8.60
2023-01-06T21:52:44.706Z,8.70
2023-01-06T21:55:11.937Z,8.70
2023-01-06T21:57:39.007Z,8.70
2023-01-06T22:00:08.075Z,8.80
2023-01-06T22:02:34.872Z,8.70
2023-01-06T22:05:01.681Z,8.70
2023-01-06T22:07:29.017Z,8.70
2023-01-06T22:09:56.968Z,8.70
2023-01-06T22:12:24.070Z,8.70
2023-01-06T22:14:53.214Z,8.70
2023-01-06T22:17:21.019Z,8.70
2023-01-06T22:19:49.551Z,8.70
2023-01-06T22:22:16.409Z,8.60
2023-01-06T22:24:43.631Z,8.70
2023-01-06T22:27:10.464Z,8.60
2023-01-06T22:29:37.220Z,8.60
2023-01-06T22:32:05.682Z,8.70
2023-01-06T22:34:32.624Z,8.60
2023-01-06T22:37:00.189Z,8.70
2023-01-06T22:39:26.938Z,8.70
2023-01-06T22:41:54.088Z,8.90
2023-01-06T22:44:21.858Z,8.90
2023-01-06T22:46:48.549Z,8.80
2023-01-06T22:49:15.332Z,8.80
2023-01-06T22:51:42.076Z,8.90
2023-01-06T22:54:08.745Z,8.90
2023-01-06T22:56:35.672Z,8.90
2023-01-06T22:59:02.658Z,8.90
2023-01-06T23:01:29.427Z,8.90
2023-01-06T23:03:56.174Z,8.90
2023-01-06T23:06:22.868Z,8.90
2023-01-06T23:08:59.816Z,8.90
2023-01-06T23:11:28.095Z,8.90
2023-01-06T23:13:57.072Z,9.00
2023-01-06T23:16:26.381Z,8.90
2023-01-06T23:18:54.224Z,8.90
2023-01-06T23:21:26.675Z,8.90
2023-01-06T23:23:54.269Z,8.90
2023-01-06T23:26:28.203Z,8.90
2023-01-06T23:28:56.079Z,8.90
2023-01-06T23:31:28.871Z,8.90
2023-01-06T23:34:00.194Z,8.90
2023-01-06T23:36:30.659Z,8.90
2023-01-06T23:38:58.580Z,8.90
2023-01-06T23:41:27.593Z,8.90
2023-01-06T23:43:55.771Z,8.90
2023-01-06T23:46:28.316Z,8.90
2023-01-06T23:48:55.899Z,8.90
2023-01-06T23:51:23.662Z,8.90
2023-01-06T23:53:50.623Z,8.80
2023-01-06T23:56:23.128Z,8.80
2023-01-06T23:58:53.004Z,8.80
